EFW3TW EGKK-LPFR
Flight info
| Callsign | EFW3TW |
|---|---|
| Flight time | N/A |
| Altitude | 35000 |
| Route | IMVUR N63 SAM M195 LORKU DCT POZOF DCT BALDA DCT ABUPI DCT ORVED DCT UPULO DCT ALAGU |
| Aircraft | A321/M-SDE3FGHIRWY/LB1 |
Departure
| Time | N/A |
|---|---|
| Airport | London Gatwick Airport (EGKK) |
Arrival
| Time | 2026-05-06 21:09 |
|---|---|
| Airport | Faro - Gago Coutinho International Airport (LPFR) |
| Time | Latitude | Longitude | Altitude | Speed | Heading |
|---|---|---|---|---|---|
| 2026-05-06 19:25 | 48.15097 | -3.57579 | 35019 ft | 444 kts | 205° |
| 2026-05-06 19:25 | 48.12262 | -3.59416 | 35020 ft | 444 kts | 205° |
| 2026-05-06 19:26 | 48.06585 | -3.63080 | 35014 ft | 444 kts | 205° |
| 2026-05-06 19:26 | 48.00898 | -3.66741 | 35016 ft | 444 kts | 205° |
| 2026-05-06 19:27 | 47.95257 | -3.70373 | 35018 ft | 444 kts | 205° |
| 2026-05-06 19:27 | 47.89566 | -3.74026 | 35015 ft | 444 kts | 205° |
| 2026-05-06 19:28 | 47.83906 | -3.77649 | 35014 ft | 444 kts | 205° |
| 2026-05-06 19:28 | 47.78237 | -3.81273 | 35014 ft | 444 kts | 205° |
| 2026-05-06 19:29 | 47.72554 | -3.84896 | 35016 ft | 444 kts | 205° |
| 2026-05-06 19:29 | 47.66875 | -3.88503 | 35015 ft | 444 kts | 204° |
| 2026-05-06 19:30 | 47.61201 | -3.92098 | 35016 ft | 443 kts | 204° |
| 2026-05-06 19:30 | 47.55527 | -3.95693 | 35013 ft | 443 kts | 204° |
| 2026-05-06 19:31 | 47.49855 | -3.99272 | 35016 ft | 443 kts | 204° |
| 2026-05-06 19:31 | 47.41367 | -4.04605 | 35017 ft | 443 kts | 204° |
| 2026-05-06 19:32 | 47.35698 | -4.08168 | 35014 ft | 443 kts | 205° |
| 2026-05-06 19:32 | 47.30030 | -4.11722 | 35023 ft | 443 kts | 204° |
| 2026-05-06 19:33 | 47.24354 | -4.15266 | 35024 ft | 443 kts | 204° |
| 2026-05-06 19:33 | 47.18687 | -4.18798 | 35021 ft | 442 kts | 204° |
| 2026-05-06 19:34 | 47.13020 | -4.22321 | 35024 ft | 442 kts | 204° |
| 2026-05-06 19:34 | 47.07317 | -4.25735 | 35026 ft | 443 kts | 202° |
| 2026-05-06 19:35 | 47.01498 | -4.28713 | 35031 ft | 443 kts | 200° |
| 2026-05-06 19:35 | 46.95644 | -4.31527 | 35032 ft | 443 kts | 200° |
| 2026-05-06 19:36 | 46.89840 | -4.34385 | 35022 ft | 444 kts | 200° |
| 2026-05-06 19:36 | 46.83989 | -4.37333 | 35015 ft | 445 kts | 200° |
| 2026-05-06 19:37 | 46.78125 | -4.40287 | 35018 ft | 446 kts | 200° |
| 2026-05-06 19:37 | 46.73237 | -4.42740 | 35023 ft | 447 kts | 200° |
| 2026-05-06 19:38 | 46.66355 | -4.46171 | 35030 ft | 447 kts | 200° |
| 2026-05-06 19:38 | 46.60460 | -4.49095 | 35034 ft | 448 kts | 200° |
| 2026-05-06 19:39 | 46.54555 | -4.52030 | 35043 ft | 448 kts | 200° |
| 2026-05-06 19:39 | 46.48694 | -4.54939 | 35049 ft | 448 kts | 200° |
| 2026-05-06 19:40 | 46.42793 | -4.57847 | 35048 ft | 448 kts | 200° |
| 2026-05-06 19:40 | 46.36882 | -4.60755 | 35050 ft | 448 kts | 200° |
| 2026-05-06 19:41 | 46.30983 | -4.63658 | 35051 ft | 448 kts | 200° |
| 2026-05-06 19:41 | 46.25087 | -4.66560 | 35046 ft | 447 kts | 200° |
| 2026-05-06 19:42 | 46.19183 | -4.69459 | 35049 ft | 447 kts | 200° |
| 2026-05-06 19:42 | 46.13286 | -4.72340 | 35051 ft | 447 kts | 200° |
| 2026-05-06 19:43 | 46.07387 | -4.75209 | 35049 ft | 448 kts | 200° |
| 2026-05-06 19:43 | 46.01480 | -4.78066 | 35053 ft | 448 kts | 200° |
| 2026-05-06 19:44 | 45.95616 | -4.80916 | 35053 ft | 448 kts | 200° |
| 2026-05-06 19:44 | 45.89711 | -4.83774 | 35052 ft | 448 kts | 200° |
| 2026-05-06 19:45 | 45.83807 | -4.86629 | 35055 ft | 448 kts | 200° |
| 2026-05-06 19:45 | 45.77906 | -4.89479 | 35054 ft | 447 kts | 200° |
| 2026-05-06 19:46 | 45.73001 | -4.91842 | 35053 ft | 447 kts | 200° |
| 2026-05-06 19:46 | 45.67104 | -4.94677 | 35052 ft | 447 kts | 200° |
| 2026-05-06 19:47 | 45.61199 | -4.97493 | 35053 ft | 447 kts | 200° |
| 2026-05-06 19:47 | 45.55305 | -5.00301 | 35056 ft | 447 kts | 200° |
| 2026-05-06 19:48 | 45.49404 | -5.03117 | 35055 ft | 446 kts | 200° |
| 2026-05-06 19:48 | 45.43512 | -5.05932 | 35054 ft | 446 kts | 200° |
| 2026-05-06 19:49 | 45.37622 | -5.08719 | 35057 ft | 446 kts | 200° |
| 2026-05-06 19:49 | 45.31732 | -5.11502 | 35058 ft | 446 kts | 200° |
| 2026-05-06 19:50 | 45.25845 | -5.14285 | 35056 ft | 446 kts | 200° |
| 2026-05-06 19:50 | 45.19958 | -5.17055 | 35056 ft | 445 kts | 200° |
| 2026-05-06 19:51 | 45.14075 | -5.19821 | 35053 ft | 445 kts | 200° |
| 2026-05-06 19:51 | 45.08197 | -5.22586 | 35056 ft | 445 kts | 200° |
| 2026-05-06 19:52 | 45.02318 | -5.25351 | 35056 ft | 445 kts | 200° |
| 2026-05-06 19:52 | 44.96436 | -5.28111 | 35058 ft | 445 kts | 200° |
| 2026-05-06 19:53 | 44.90556 | -5.30852 | 35053 ft | 445 kts | 199° |
| 2026-05-06 19:53 | 44.84672 | -5.33588 | 35054 ft | 445 kts | 200° |
| 2026-05-06 19:54 | 44.78823 | -5.36298 | 35057 ft | 445 kts | 200° |
| 2026-05-06 19:54 | 44.72933 | -5.39018 | 35054 ft | 445 kts | 199° |
| 2026-05-06 19:55 | 44.67049 | -5.41732 | 35054 ft | 445 kts | 200° |
| 2026-05-06 19:55 | 44.61166 | -5.44451 | 35056 ft | 445 kts | 200° |
| 2026-05-06 19:56 | 44.55286 | -5.47173 | 35050 ft | 445 kts | 200° |
| 2026-05-06 19:56 | 44.49397 | -5.49879 | 35053 ft | 445 kts | 199° |
| 2026-05-06 19:57 | 44.43508 | -5.52566 | 35050 ft | 445 kts | 199° |
| 2026-05-06 19:57 | 44.37625 | -5.55256 | 35051 ft | 445 kts | 199° |
| 2026-05-06 19:58 | 44.31745 | -5.57943 | 35048 ft | 444 kts | 199° |
| 2026-05-06 19:58 | 44.25864 | -5.60621 | 35049 ft | 444 kts | 199° |
| 2026-05-06 19:59 | 44.19983 | -5.63291 | 35050 ft | 444 kts | 199° |
| 2026-05-06 19:59 | 44.14117 | -5.65954 | 35049 ft | 444 kts | 199° |
| 2026-05-06 20:00 | 44.08245 | -5.68617 | 35051 ft | 443 kts | 199° |
| 2026-05-06 20:00 | 44.02419 | -5.71250 | 35051 ft | 443 kts | 199° |
| 2026-05-06 20:01 | 43.96545 | -5.73901 | 35049 ft | 443 kts | 199° |
| 2026-05-06 20:01 | 43.90686 | -5.76534 | 35049 ft | 443 kts | 199° |
| 2026-05-06 20:02 | 43.84822 | -5.79160 | 35048 ft | 442 kts | 199° |
| 2026-05-06 20:02 | 43.78969 | -5.81789 | 35050 ft | 442 kts | 199° |
| 2026-05-06 20:03 | 43.73122 | -5.84414 | 35050 ft | 442 kts | 199° |
| 2026-05-06 20:03 | 43.67266 | -5.86980 | 35051 ft | 442 kts | 198° |
| 2026-05-06 20:04 | 43.61357 | -5.89098 | 35050 ft | 442 kts | 195° |
| 2026-05-06 20:04 | 43.55364 | -5.91001 | 35045 ft | 442 kts | 194° |
| 2026-05-06 20:05 | 43.49384 | -5.92945 | 35049 ft | 441 kts | 195° |
| 2026-05-06 20:05 | 43.43422 | -5.94969 | 35053 ft | 441 kts | 195° |
| 2026-05-06 20:06 | 43.37460 | -5.97013 | 35051 ft | 441 kts | 195° |
| 2026-05-06 20:06 | 43.31540 | -5.99026 | 35055 ft | 441 kts | 195° |
| 2026-05-06 20:07 | 43.25577 | -6.01034 | 35054 ft | 441 kts | 195° |
| 2026-05-06 20:07 | 43.19601 | -6.03034 | 35060 ft | 441 kts | 195° |
| 2026-05-06 20:08 | 43.13633 | -6.05033 | 35056 ft | 441 kts | 195° |
| 2026-05-06 20:08 | 43.07673 | -6.07034 | 35047 ft | 440 kts | 195° |
| 2026-05-06 20:09 | 43.01756 | -6.09011 | 35041 ft | 440 kts | 195° |
| 2026-05-06 20:09 | 42.95806 | -6.10999 | 35033 ft | 440 kts | 195° |
| 2026-05-06 20:10 | 42.89862 | -6.12972 | 35045 ft | 440 kts | 195° |
| 2026-05-06 20:10 | 42.83917 | -6.14947 | 35029 ft | 439 kts | 195° |
| 2026-05-06 20:11 | 42.77971 | -6.16923 | 35021 ft | 439 kts | 195° |
| 2026-05-06 20:11 | 42.72065 | -6.18880 | 35008 ft | 439 kts | 195° |
| 2026-05-06 20:12 | 42.66129 | -6.20837 | 35002 ft | 439 kts | 195° |
| 2026-05-06 20:12 | 42.60199 | -6.22792 | 34993 ft | 438 kts | 195° |
| 2026-05-06 20:13 | 42.54273 | -6.24745 | 34995 ft | 438 kts | 195° |
| 2026-05-06 20:13 | 42.48358 | -6.26683 | 34990 ft | 437 kts | 195° |
| 2026-05-06 20:14 | 42.42437 | -6.28624 | 34979 ft | 437 kts | 195° |
| 2026-05-06 20:14 | 42.36568 | -6.30547 | 34977 ft | 436 kts | 195° |
| 2026-05-06 20:15 | 42.30628 | -6.32494 | 34974 ft | 436 kts | 195° |
| 2026-05-06 20:15 | 42.24770 | -6.34409 | 34976 ft | 436 kts | 195° |
| 2026-05-06 20:16 | 42.18867 | -6.36325 | 34977 ft | 436 kts | 195° |
| 2026-05-06 20:16 | 42.12971 | -6.38241 | 34971 ft | 435 kts | 195° |
| 2026-05-06 20:17 | 42.07084 | -6.40148 | 34965 ft | 435 kts | 195° |
| 2026-05-06 20:17 | 42.01199 | -6.42047 | 34959 ft | 434 kts | 195° |
| 2026-05-06 20:18 | 41.95320 | -6.43940 | 34956 ft | 434 kts | 195° |
| 2026-05-06 20:18 | 41.89443 | -6.45833 | 34956 ft | 434 kts | 195° |
| 2026-05-06 20:19 | 41.83579 | -6.47722 | 34949 ft | 434 kts | 195° |
| 2026-05-06 20:19 | 41.77710 | -6.49611 | 34943 ft | 433 kts | 195° |
| 2026-05-06 20:20 | 41.71837 | -6.51496 | 34943 ft | 433 kts | 195° |
| 2026-05-06 20:20 | 41.65978 | -6.53362 | 34941 ft | 433 kts | 195° |
| 2026-05-06 20:21 | 41.60155 | -6.55214 | 34944 ft | 433 kts | 195° |
| 2026-05-06 20:21 | 41.54298 | -6.57083 | 34940 ft | 433 kts | 195° |
| 2026-05-06 20:22 | 41.48440 | -6.58949 | 34938 ft | 433 kts | 196° |
| 2026-05-06 20:22 | 41.42578 | -6.60811 | 34939 ft | 433 kts | 196° |
| 2026-05-06 20:23 | 41.36720 | -6.62663 | 34940 ft | 433 kts | 196° |
| 2026-05-06 20:23 | 41.30854 | -6.64512 | 34936 ft | 432 kts | 196° |
| 2026-05-06 20:24 | 41.24999 | -6.66360 | 34937 ft | 432 kts | 196° |
| 2026-05-06 20:24 | 41.19152 | -6.68203 | 34937 ft | 432 kts | 196° |
| 2026-05-06 20:25 | 41.13312 | -6.70043 | 34936 ft | 431 kts | 196° |
| 2026-05-06 20:25 | 41.07480 | -6.71882 | 34934 ft | 431 kts | 196° |
| 2026-05-06 20:26 | 41.01647 | -6.73711 | 34934 ft | 430 kts | 196° |
| 2026-05-06 20:26 | 40.95820 | -6.75533 | 34926 ft | 430 kts | 196° |
| 2026-05-06 20:27 | 40.90005 | -6.77346 | 34933 ft | 429 kts | 196° |
| 2026-05-06 20:27 | 40.84184 | -6.79159 | 34927 ft | 429 kts | 196° |
| 2026-05-06 20:28 | 40.78415 | -6.80960 | 34930 ft | 429 kts | 196° |
| 2026-05-06 20:28 | 40.72602 | -6.82763 | 34928 ft | 428 kts | 196° |
| 2026-05-06 20:29 | 40.66803 | -6.84548 | 34932 ft | 428 kts | 196° |
| 2026-05-06 20:29 | 40.61007 | -6.86342 | 34936 ft | 427 kts | 196° |
| 2026-05-06 20:30 | 40.52326 | -6.89036 | 34930 ft | 427 kts | 196° |
| 2026-05-06 20:31 | 40.46537 | -6.90816 | 34926 ft | 427 kts | 196° |
| 2026-05-06 20:31 | 40.40756 | -6.92586 | 34919 ft | 427 kts | 196° |
| 2026-05-06 20:32 | 40.34972 | -6.94360 | 34922 ft | 427 kts | 196° |
| 2026-05-06 20:32 | 40.29187 | -6.96135 | 34922 ft | 427 kts | 196° |
| 2026-05-06 20:33 | 40.23400 | -6.97906 | 34917 ft | 427 kts | 196° |
| 2026-05-06 20:33 | 40.18590 | -6.99378 | 34913 ft | 426 kts | 196° |
| 2026-05-06 20:34 | 40.12800 | -7.01145 | 34912 ft | 426 kts | 196° |
| 2026-05-06 20:34 | 40.07022 | -7.02906 | 34907 ft | 426 kts | 196° |
| 2026-05-06 20:35 | 40.01246 | -7.04660 | 34906 ft | 426 kts | 196° |
| 2026-05-06 20:35 | 39.95460 | -7.06412 | 34900 ft | 426 kts | 196° |
| 2026-05-06 20:36 | 39.89682 | -7.08158 | 34897 ft | 426 kts | 196° |
| 2026-05-06 20:36 | 39.83904 | -7.09900 | 34896 ft | 426 kts | 196° |
| 2026-05-06 20:37 | 39.78123 | -7.11646 | 34895 ft | 426 kts | 196° |
| 2026-05-06 20:37 | 39.72377 | -7.13381 | 34896 ft | 426 kts | 196° |
| 2026-05-06 20:38 | 39.66592 | -7.15123 | 34898 ft | 427 kts | 196° |
| 2026-05-06 20:38 | 39.60805 | -7.16857 | 34898 ft | 427 kts | 196° |
| 2026-05-06 20:39 | 39.55024 | -7.18593 | 34900 ft | 427 kts | 196° |
| 2026-05-06 20:39 | 39.49232 | -7.20327 | 34901 ft | 427 kts | 196° |
| 2026-05-06 20:40 | 39.43442 | -7.22054 | 34902 ft | 427 kts | 196° |
| 2026-05-06 20:40 | 39.37656 | -7.23784 | 34902 ft | 427 kts | 196° |
| 2026-05-06 20:41 | 39.31869 | -7.25508 | 34902 ft | 427 kts | 196° |
| 2026-05-06 20:41 | 39.26079 | -7.27230 | 34904 ft | 427 kts | 196° |
| 2026-05-06 20:42 | 39.20286 | -7.28939 | 34904 ft | 427 kts | 196° |
| 2026-05-06 20:42 | 39.14530 | -7.30640 | 34904 ft | 427 kts | 196° |
| 2026-05-06 20:43 | 39.08742 | -7.32355 | 34903 ft | 427 kts | 196° |
| 2026-05-06 20:43 | 39.02946 | -7.34063 | 34908 ft | 427 kts | 196° |
| 2026-05-06 20:44 | 38.97149 | -7.35772 | 34904 ft | 428 kts | 196° |
| 2026-05-06 20:44 | 38.91340 | -7.37478 | 34905 ft | 428 kts | 196° |
| 2026-05-06 20:45 | 38.85537 | -7.39183 | 34903 ft | 428 kts | 196° |
| 2026-05-06 20:45 | 38.79724 | -7.40889 | 34905 ft | 428 kts | 196° |
| 2026-05-06 20:46 | 38.73910 | -7.42589 | 34905 ft | 429 kts | 196° |
| 2026-05-06 20:46 | 38.68086 | -7.44292 | 34908 ft | 429 kts | 196° |
| 2026-05-06 20:47 | 38.62265 | -7.45991 | 34910 ft | 429 kts | 196° |
| 2026-05-06 20:47 | 38.56436 | -7.47683 | 34914 ft | 429 kts | 196° |
| 2026-05-06 20:48 | 38.50610 | -7.49384 | 34912 ft | 430 kts | 196° |
| 2026-05-06 20:48 | 38.44814 | -7.51073 | 34916 ft | 430 kts | 196° |
| 2026-05-06 20:49 | 38.38968 | -7.52758 | 34915 ft | 430 kts | 196° |
| 2026-05-06 20:49 | 38.33119 | -7.54444 | 34913 ft | 431 kts | 196° |
| 2026-05-06 20:50 | 38.27262 | -7.56132 | 34916 ft | 431 kts | 196° |
| 2026-05-06 20:50 | 38.21416 | -7.57820 | 34889 ft | 429 kts | 196° |
| 2026-05-06 20:50 | 38.18510 | -7.58660 | 34367 ft | 427 kts | 196° |
| 2026-05-06 20:51 | 38.15615 | -7.59492 | 33730 ft | 426 kts | 196° |
| 2026-05-06 20:51 | 38.12724 | -7.60325 | 32996 ft | 426 kts | 196° |
| 2026-05-06 20:51 | 38.09826 | -7.61121 | 32237 ft | 427 kts | 193° |
| 2026-05-06 20:51 | 38.06848 | -7.61458 | 31468 ft | 432 kts | 184° |
| 2026-05-06 20:52 | 38.03840 | -7.61454 | 30680 ft | 433 kts | 184° |
| 2026-05-06 20:52 | 38.00830 | -7.61448 | 29874 ft | 433 kts | 184° |
| 2026-05-06 20:52 | 37.97812 | -7.61447 | 28905 ft | 434 kts | 184° |
| 2026-05-06 20:52 | 37.94824 | -7.61450 | 27906 ft | 436 kts | 184° |
| 2026-05-06 20:53 | 37.91784 | -7.61453 | 27075 ft | 435 kts | 183° |
| 2026-05-06 20:53 | 37.88769 | -7.61451 | 26386 ft | 431 kts | 183° |
| 2026-05-06 20:53 | 37.85787 | -7.61448 | 25707 ft | 427 kts | 183° |
| 2026-05-06 20:53 | 37.82785 | -7.61442 | 25034 ft | 423 kts | 183° |
| 2026-05-06 20:54 | 37.79853 | -7.61441 | 24378 ft | 420 kts | 183° |
| 2026-05-06 20:54 | 37.76979 | -7.61445 | 23741 ft | 417 kts | 182° |
| 2026-05-06 20:54 | 37.74090 | -7.61450 | 23015 ft | 414 kts | 182° |
| 2026-05-06 20:54 | 37.71229 | -7.61468 | 22285 ft | 409 kts | 184° |
| 2026-05-06 20:55 | 37.68398 | -7.61596 | 21571 ft | 405 kts | 185° |
| 2026-05-06 20:55 | 37.65602 | -7.61818 | 20880 ft | 400 kts | 186° |
| 2026-05-06 20:55 | 37.62839 | -7.62084 | 20204 ft | 396 kts | 187° |
| 2026-05-06 20:55 | 37.60103 | -7.62358 | 19565 ft | 392 kts | 187° |
| 2026-05-06 20:56 | 37.57393 | -7.62621 | 18922 ft | 389 kts | 186° |
| 2026-05-06 20:56 | 37.54703 | -7.62863 | 18310 ft | 385 kts | 186° |
| 2026-05-06 20:56 | 37.52040 | -7.63086 | 17641 ft | 382 kts | 186° |
| 2026-05-06 20:56 | 37.49397 | -7.63298 | 16954 ft | 379 kts | 185° |
| 2026-05-06 20:57 | 37.46774 | -7.63508 | 16286 ft | 376 kts | 185° |
| 2026-05-06 20:57 | 37.44177 | -7.63719 | 15634 ft | 373 kts | 185° |
| 2026-05-06 20:57 | 37.41594 | -7.63930 | 15101 ft | 367 kts | 185° |
| 2026-05-06 20:57 | 37.39109 | -7.64130 | 14978 ft | 350 kts | 185° |
| 2026-05-06 20:58 | 37.36736 | -7.64315 | 14848 ft | 334 kts | 185° |
| 2026-05-06 20:58 | 37.34470 | -7.64494 | 14731 ft | 319 kts | 186° |
| 2026-05-06 20:58 | 37.32319 | -7.64666 | 14445 ft | 301 kts | 186° |
| 2026-05-06 20:58 | 37.30258 | -7.64835 | 13841 ft | 294 kts | 186° |
| 2026-05-06 20:59 | 37.28231 | -7.65003 | 13116 ft | 290 kts | 186° |
| 2026-05-06 20:59 | 37.26227 | -7.65169 | 12396 ft | 287 kts | 185° |
| 2026-05-06 20:59 | 37.24241 | -7.65332 | 11669 ft | 284 kts | 185° |
| 2026-05-06 20:59 | 37.22300 | -7.65493 | 10978 ft | 282 kts | 185° |
| 2026-05-06 21:00 | 37.20347 | -7.65654 | 10298 ft | 281 kts | 184° |
| 2026-05-06 21:00 | 37.18401 | -7.65815 | 9596 ft | 279 kts | 184° |
| 2026-05-06 21:00 | 37.16469 | -7.65975 | 8871 ft | 278 kts | 183° |
| 2026-05-06 21:00 | 37.14545 | -7.66134 | 8183 ft | 276 kts | 183° |
| 2026-05-06 21:01 | 37.12633 | -7.66290 | 7503 ft | 275 kts | 182° |
| 2026-05-06 21:01 | 37.10734 | -7.66446 | 6855 ft | 273 kts | 182° |
| 2026-05-06 21:01 | 37.08842 | -7.66602 | 6219 ft | 271 kts | 181° |
| 2026-05-06 21:01 | 37.06964 | -7.66754 | 5573 ft | 268 kts | 181° |
| 2026-05-06 21:02 | 37.05176 | -7.66900 | 5419 ft | 247 kts | 182° |
| 2026-05-06 21:02 | 37.03521 | -7.67035 | 5183 ft | 229 kts | 182° |
| 2026-05-06 21:02 | 37.02006 | -7.67159 | 5048 ft | 206 kts | 182° |
| 2026-05-06 21:02 | 37.00670 | -7.67531 | 4827 ft | 193 kts | 199° |
| 2026-05-06 21:03 | 36.99509 | -7.68387 | 4338 ft | 195 kts | 220° |
| 2026-05-06 21:03 | 36.98655 | -7.69632 | 4090 ft | 184 kts | 239° |
| 2026-05-06 21:03 | 36.98159 | -7.71110 | 3902 ft | 184 kts | 257° |
| 2026-05-06 21:03 | 36.98043 | -7.72692 | 3686 ft | 182 kts | 275° |
| 2026-05-06 21:04 | 36.98240 | -7.74245 | 3455 ft | 180 kts | 282° |
| 2026-05-06 21:04 | 36.98461 | -7.75773 | 3228 ft | 178 kts | 282° |
| 2026-05-06 21:04 | 36.98680 | -7.77289 | 2976 ft | 176 kts | 283° |
| 2026-05-06 21:04 | 36.98892 | -7.78765 | 2756 ft | 173 kts | 284° |
| 2026-05-06 21:05 | 36.99104 | -7.80239 | 2527 ft | 171 kts | 284° |
| 2026-05-06 21:05 | 36.99313 | -7.81697 | 2301 ft | 168 kts | 286° |
| 2026-05-06 21:05 | 36.99514 | -7.83099 | 2085 ft | 159 kts | 287° |
| 2026-05-06 21:05 | 36.99698 | -7.84395 | 1875 ft | 145 kts | 285° |
| 2026-05-06 21:06 | 36.99874 | -7.85616 | 1699 ft | 141 kts | 288° |
| 2026-05-06 21:06 | 37.00043 | -7.86798 | 1506 ft | 136 kts | 288° |
| 2026-05-06 21:06 | 37.00212 | -7.87966 | 1321 ft | 137 kts | 287° |
| 2026-05-06 21:06 | 37.00379 | -7.89134 | 1125 ft | 136 kts | 287° |
| 2026-05-06 21:07 | 37.00549 | -7.90304 | 964 ft | 135 kts | 285° |
| 2026-05-06 21:07 | 37.00720 | -7.91475 | 765 ft | 140 kts | 284° |
| 2026-05-06 21:07 | 37.00889 | -7.92664 | 604 ft | 137 kts | 282° |
| 2026-05-06 21:07 | 37.01060 | -7.93847 | 397 ft | 138 kts | 282° |
| 2026-05-06 21:08 | 37.01225 | -7.95027 | 225 ft | 139 kts | 281° |
| 2026-05-06 21:08 | 37.01393 | -7.96213 | 45 ft | 137 kts | 281° |
| 2026-05-06 21:08 | 37.01540 | -7.97249 | 20 ft | 100 kts | 279° |
| 2026-05-06 21:08 | 37.01630 | -7.97891 | 22 ft | 50 kts | 281° |
| 2026-05-06 21:09 | 37.01712 | -7.98127 | 23 ft | 22 kts | 302° |
| 2026-05-06 21:09 | 37.01796 | -7.98228 | 21 ft | 15 kts | 343° |
| 2026-05-06 21:09 | 37.01849 | -7.98152 | 20 ft | 14 kts | 94° |
| 2026-05-06 21:09 | 37.01831 | -7.98028 | 20 ft | 15 kts | 100° |
| 2026-05-06 21:10 | 37.01811 | -7.97893 | 20 ft | 16 kts | 100° |
| 2026-05-06 21:10 | 37.01790 | -7.97746 | 20 ft | 18 kts | 100° |
| 2026-05-06 21:10 | 37.01766 | -7.97589 | 20 ft | 19 kts | 100° |
| 2026-05-06 21:10 | 37.01754 | -7.97460 | 20 ft | 12 kts | 74° |
| 2026-05-06 21:11 | 37.01811 | -7.97395 | 20 ft | 6 kts | 35° |
| 2026-05-06 21:11 | 37.01845 | -7.97352 | 20 ft | 8 kts | 63° |
| 2026-05-06 21:11 | 37.01845 | -7.97281 | 20 ft | 9 kts | 99° |
| 2026-05-06 21:11 | 37.01834 | -7.97198 | 20 ft | 11 kts | 99° |
| 2026-05-06 21:12 | 37.01820 | -7.97100 | 20 ft | 12 kts | 100° |
| 2026-05-06 21:12 | 37.01832 | -7.96999 | 23 ft | 13 kts | 56° |
| 2026-05-06 21:12 | 37.01837 | -7.96890 | 20 ft | 13 kts | 100° |
| 2026-05-06 21:12 | 37.01829 | -7.96798 | 20 ft | 8 kts | 76° |
| 2026-05-06 21:13 | 37.01883 | -7.96775 | 20 ft | 9 kts | 9° |
| 2026-05-06 21:13 | 37.01904 | -7.96770 | 20 ft | 0 kts | 10° |